Ciclone tropical GUAMBE 2021: trajetória, intensidade e histórico
22/02/2021, 12:00:00
11/02/2021, 00:00:00 – 22/02/2021, 12:00:00
Trajetória histórica
Acompanhe a evolução e o deslocamento de Ciclone tropical GUAMBE em 2021, com a trajetória completa registrada, ventos máximos sustentados de 90 nós, pressão central mínima e cronologia detalhada.
| Data | Hora | Tipo | Ventokm/h | PressãohPa |
|---|---|---|---|---|
| 22/02 | 12:00 | STSTempestade tropical severa | 95 | 987 |
| 22/02 | 09:00 | EXCiclone extratropical | 95 | 987 |
| 22/02 | 06:00 | STSTempestade tropical severa | 100 | 982 |
| 22/02 | 03:00 | EXCiclone extratropical | 100 | 981 |
| 22/02 | 00:00 | STSTempestade tropical severa | 100 | 980 |
| 21/02 | 21:00 | TSTempestade tropical | 100 | 981 |
| 21/02 | 18:00 | STSTempestade tropical severa | 100 | 981 |
| 21/02 | 15:00 | TSTempestade tropical | 100 | 985 |
| 21/02 | 12:00 | STSTempestade tropical severa | 95 | 988 |
| 21/02 | 09:00 | TSTempestade tropical | 95 | 988 |
| 21/02 | 06:00 | STSTempestade tropical severa | 95 | 987 |
| 21/02 | 03:00 | TSTempestade tropical | 100 | 987 |
| 21/02 | 00:00 | STSTempestade tropical severa | 100 | 986 |
| 20/02 | 21:00 | TSTempestade tropical | 105 | 984 |
| 20/02 | 18:00 | TDDepressão tropical | 110 | 982 |
| 20/02 | 15:00 | TSTempestade tropical | 110 | 981 |
| 20/02 | 12:00 | TDDepressão tropical | 110 | 980 |
| 20/02 | 09:00 | TSTempestade tropical | 110 | 979 |
| 20/02 | 06:00 | TDDepressão tropical | 110 | 978 |
| 20/02 | 03:00 | TCCiclone tropical | 120 | 977 |
| 20/02 | 00:00 | TDDepressão tropical | 130 | 975 |
| 19/02 | 21:00 | TCCiclone tropical | 145 | 970 |
| 19/02 | 18:00 | MTSTempestade tropical moderada | 155 | 965 |
| 19/02 | 15:00 | TCCiclone tropical | 165 | 963 |
| 19/02 | 12:00 | MTSTempestade tropical moderada | 165 | 960 |
| 19/02 | 09:00 | TCCiclone tropical | 155 | 967 |
| 19/02 | 06:00 | MTSTempestade tropical moderada | 140 | 974 |
| 19/02 | 03:00 | TSTempestade tropical | 125 | 978 |
| 19/02 | 00:00 | TDDepressão tropical | 110 | 981 |
| 18/02 | 21:00 | TSTempestade tropical | 105 | 983 |
| 18/02 | 18:00 | TDDepressão tropical | 100 | 984 |
| 18/02 | 15:00 | TSTempestade tropical | 100 | 984 |
| 18/02 | 12:00 | TDDepressão tropical | 100 | 983 |
| 18/02 | 09:00 | TSTempestade tropical | 100 | 987 |
| 18/02 | 06:00 | TDDepressão tropical | 95 | 991 |
| 18/02 | 03:00 | TSTempestade tropical | 90 | 992 |
| 18/02 | 00:00 | TDDepressão tropical | 85 | 992 |
| 17/02 | 21:00 | TSTempestade tropical | 85 | 992 |
| 17/02 | 18:00 | TDDepressão tropical | 85 | 991 |
| 17/02 | 15:00 | TSTempestade tropical | 80 | 993 |
| 17/02 | 12:00 | TDDepressão tropical | 75 | 994 |
| 17/02 | 09:00 | TSTempestade tropical | 70 | 994 |
| 17/02 | 06:00 | DBPerturbação tropical | 65 | 993 |
| 17/02 | 03:00 | TDDepressão tropical | 60 | 996 |
| 17/02 | 00:00 | DBPerturbação tropical | 55 | 999 |
| 16/02 | 21:00 | TDDepressão tropical | 55 | 1000 |
| 16/02 | 18:00 | DBPerturbação tropical | 55 | 1000 |
| 16/02 | 15:00 | TDDepressão tropical | 50 | 999 |
| 16/02 | 12:00 | DBPerturbação tropical | 45 | 998 |
| 16/02 | 09:00 | SDDepressão subtropical | 45 | 1000 |
| 16/02 | 06:00 | DBPerturbação tropical | 45 | 1001 |
| 16/02 | 03:00 | SDDepressão subtropical | 45 | 1002 |
| 16/02 | 00:00 | VITCCiclone tropical muito intenso | 45 | 1002 |
| 15/02 | 21:00 | SDDepressão subtropical | 45 | 1000 |
| 15/02 | 18:00 | VITCCiclone tropical muito intenso | 45 | 997 |
| 15/02 | 15:00 | SDDepressão subtropical | 45 | 997 |
| 15/02 | 12:00 | VITCCiclone tropical muito intenso | 45 | 997 |
| 15/02 | 09:00 | SDDepressão subtropical | 45 | 999 |
| 15/02 | 06:00 | VITCCiclone tropical muito intenso | 45 | 1000 |
| 15/02 | 03:00 | SDDepressão subtropical | 45 | 1000 |
| 15/02 | 00:00 | VITCCiclone tropical muito intenso | 45 | 999 |
| 14/02 | 21:00 | DBPerturbação tropical | 45 | 1001 |
| 14/02 | 18:00 | VITCCiclone tropical muito intenso | 35 | 1002 |
| 14/02 | 15:00 | SDDepressão subtropical | 35 | 1005 |
| 14/02 | 12:00 | VITCCiclone tropical muito intenso | 35 | 1007 |
| 14/02 | 09:00 | SDDepressão subtropical | 35 | 1007 |
| 14/02 | 06:00 | VITCCiclone tropical muito intenso | 35 | 1007 |
| 14/02 | 03:00 | SDDepressão subtropical | 35 | 1007 |
| 14/02 | 00:00 | VITCCiclone tropical muito intenso | 35 | 1007 |
| 13/02 | 21:00 | TDDepressão tropical | 30 | 1000 |
| 13/02 | 18:00 | VITCCiclone tropical muito intenso | 30 | 1000 |
| 13/02 | 15:00 | TDDepressão tropical | 30 | 1000 |
| 13/02 | 12:00 | VITCCiclone tropical muito intenso | 30 | 1000 |
| 13/02 | 09:00 | TDDepressão tropical | 30 | 1000 |
| 13/02 | 06:00 | VITCCiclone tropical muito intenso | 30 | 1000 |
| 13/02 | 03:00 | TDDepressão tropical | 30 | 1000 |
| 13/02 | 00:00 | VITCCiclone tropical muito intenso | 30 | 1000 |
| 12/02 | 21:00 | TDDepressão tropical | 35 | 1000 |
| 12/02 | 18:00 | VITCCiclone tropical muito intenso | 35 | 1000 |
| 12/02 | 15:00 | TDDepressão tropical | 35 | 1000 |
| 12/02 | 12:00 | VITCCiclone tropical muito intenso | 35 | 1000 |
| 12/02 | 09:00 | TDDepressão tropical | 45 | 1000 |
| 12/02 | 06:00 | VITCCiclone tropical muito intenso | 45 | 1000 |
| 12/02 | 03:00 | TDDepressão tropical | 50 | 1000 |
| 12/02 | 00:00 | DBPerturbação tropical | 55 | 1000 |
| 11/02 | 21:00 | TDDepressão tropical | 55 | 1001 |
| 11/02 | 18:00 | DBPerturbação tropical | 55 | 1001 |
| 11/02 | 15:00 | TDDepressão tropical | 55 | 1002 |
| 11/02 | 12:00 | DBPerturbação tropical | 50 | 1002 |
| 11/02 | 09:00 | TDDepressão tropical | 50 | 1003 |
| 11/02 | 06:00 | DBPerturbação tropical | 45 | 1003 |
| 11/02 | 03:00 | TDDepressão tropical | 45 | 1004 |
| 11/02 | 00:00 | DBPerturbação tropical | 45 | 1004 |
Cronologia de localização
93 Registos de localizaçãoDetalhes do evento
Ligações das fontes
A localização, a extensão e o estado de cada evento podem ser atualizados em momentos diferentes consoante a fonte. Confirme decisões importantes junto das autoridades oficiais de emergência.
Os registos de eventos provêm da NASA EONET e são complementados por registos de deslizamentos de terra do USGS FDSN. As análises e previsões de tempestades podem utilizar a NOAA NHC ou o JTWC, com registos históricos ATCF da UCAR/NCAR quando disponíveis. As imagens de satélite provêm da NASA Worldview/GIBS (GOES e Himawari) ou da EUMETSAT Meteosat, consoante a cobertura do mapa.
Fontes: NASA EONET · USGS · NOAA NHC · JTWC · UCAR/NCAR ATCF · NASA Worldview/GIBS · EUMETSAT Meteosat · OpenStreetMap contributors